Time;durP1;ratioP1;P1;durP2;ratioP2;P2;SDS_P1;SDS_P2;PMS_P1;PMS_P2;Temp;Humidity;BMP_temperature;BMP_pressure;BME280_temperature;BME280_humidity;BME280_pressure;Samples;Min_cycle;Max_cycle;Signal;HPM_P1;HPM_P2
2024/03/30 00:01:02;;;;;;;5.30;4.20;;;11.10;98.70;;;;;;5032942;28;20923;-76
2024/03/30 00:03:27;;;;;;;8.23;4.28;;;11.20;99.90;;;;;;5033802;28;20873;-76
2024/03/30 00:06:00;;;;;;;3.33;3.03;;;11.10;98.00;;;;;;5033025;28;20375;-76
2024/03/30 00:08:26;;;;;;;5.35;4.38;;;11.10;98.00;;;;;;5033417;28;20393;-75
2024/03/30 00:10:58;;;;;;;4.32;3.65;;;11.10;98.40;;;;;;5032083;28;20399;-76
2024/03/30 00:13:24;;;;;;;4.30;3.60;;;11.00;99.40;;;;;;5031139;28;20383;-76
2024/03/30 00:15:49;;;;;;;4.63;3.83;;;11.00;99.80;;;;;;5031788;28;20401;-76
2024/03/30 00:18:15;;;;;;;5.30;4.30;;;11.80;99.50;;;;;;5032214;28;20406;-75
2024/03/30 00:20:40;;;;;;;8.17;4.20;;;11.10;98.80;;;;;;5032442;28;20387;-75
2024/03/30 00:23:06;;;;;;;10.43;5.03;;;11.10;99.30;;;;;;5032554;28;21012;-76
2024/03/30 00:25:31;;;;;;;6.80;4.55;;;11.10;99.50;;;;;;5032851;28;20893;-75
2024/03/30 00:27:58;;;;;;;7.57;4.53;;;11.00;99.90;;;;;;5034564;28;20391;-75
2024/03/30 00:30:24;;;;;;;7.35;4.95;;;11.00;99.90;;;;;;5034587;28;20387;-76
2024/03/30 00:32:49;;;;;;;7.57;4.80;;;11.10;99.90;;;;;;5042362;28;20421;-75
2024/03/30 00:35:16;;;;;;;7.03;5.27;;;10.90;99.90;;;;;;5039267;28;20446;-75
2024/03/30 00:37:41;;;;;;;6.82;4.50;;;11.10;99.90;;;;;;5033359;28;20398;-76
2024/03/30 00:40:07;;;;;;;7.72;4.78;;;11.10;99.80;;;;;;5031983;28;20415;-75
2024/03/30 00:42:34;;;;;;;8.15;4.30;;;11.10;99.40;;;;;;5032934;28;20457;-75
2024/03/30 00:45:00;;;;;;;5.32;4.55;;;11.20;99.30;;;;;;5031974;28;20482;-75
2024/03/30 00:47:26;;;;;;;5.33;4.20;;;11.10;99.60;;;;;;5033303;28;20410;-76
2024/03/30 00:49:52;;;;;;;5.27;3.93;;;;;;;;;;5035750;28;20929;-76
2024/03/30 00:52:17;;;;;;;6.80;4.30;;;11.00;99.10;;;;;;5038255;28;20754;-75
2024/03/30 00:54:43;;;;;;;6.07;4.15;;;11.10;99.90;;;;;;5037386;28;20391;-75
2024/03/30 00:57:09;;;;;;;4.72;3.70;;;11.20;97.00;;;;;;5038621;28;20407;-75
2024/03/30 00:59:36;;;;;;;5.35;4.32;;;11.10;98.10;;;;;;5035982;28;20510;-75
2024/03/30 01:02:02;;;;;;;5.85;4.32;;;11.10;98.10;;;;;;5031608;28;20960;-74
2024/03/30 01:04:29;;;;;;;5.75;4.35;;;11.10;97.20;;;;;;5031768;28;20423;-76
2024/03/30 01:06:58;;;;;;;4.67;4.07;;;11.10;97.20;;;;;;5032106;28;20387;-76
2024/03/30 01:09:40;;;;;;;5.85;4.40;;;11.10;97.30;;;;;;5031882;28;20378;-74
2024/03/30 01:12:06;;;;;;;6.17;4.10;;;11.30;94.90;;;;;;5031554;28;20390;-76
2024/03/30 01:14:33;;;;;;;5.20;4.00;;;11.40;91.90;;;;;;5031568;28;20397;-77
2024/03/30 01:16:59;;;;;;;5.97;5.15;;;11.20;93.70;;;;;;5032860;28;20451;-77
2024/03/30 01:19:25;;;;;;;6.38;5.10;;;11.10;96.10;;;;;;5035080;28;20394;-75
2024/03/30 01:21:51;;;;;;;5.75;4.50;;;10.90;97.40;;;;;;5035678;28;20741;-75
2024/03/30 01:24:17;;;;;;;6.65;5.07;;;10.80;98.20;;;;;;5035940;28;20391;-74
2024/03/30 01:26:56;;;;;;;6.23;4.70;;;10.80;99.30;;;;;;5035998;28;20383;-77
2024/03/30 01:29:24;;;;;;;5.50;4.70;;;10.80;99.00;;;;;;5035870;28;20473;-76
2024/03/30 01:31:51;;;;;;;6.30;5.10;;;10.70;99.90;;;;;;5034822;28;20742;-74
2024/03/30 01:34:17;;;;;;;4.72;4.13;;;10.80;99.20;;;;;;5034776;28;20497;-75
2024/03/30 01:36:43;;;;;;;4.80;4.23;;;10.70;98.00;;;;;;5035351;28;20500;-76
2024/03/30 01:39:08;;;;;;;7.37;4.23;;;10.70;99.70;;;;;;5034906;28;20477;-76
2024/03/30 01:41:37;;;;;;;6.93;5.00;;;10.50;99.90;;;;;;5034290;28;20506;-78
2024/03/30 01:44:03;;;;;;;5.47;4.60;;;10.40;99.90;;;;;;5034884;28;20395;-76
2024/03/30 01:46:31;;;;;;;6.25;4.63;;;10.30;99.90;;;;;;5034639;28;20421;-76
2024/03/30 01:48:57;;;;;;;7.20;5.03;;;10.10;99.90;;;;;;5034934;28;20387;-76
2024/03/30 01:51:23;;;;;;;6.68;4.60;;;10.10;99.90;;;;;;5034839;28;20401;-77
2024/03/30 01:53:50;;;;;;;7.25;4.53;;;10.00;99.90;;;;;;5033715;28;20415;-75
2024/03/30 01:56:19;;;;;;;6.22;4.40;;;10.00;99.90;;;;;;5035533;28;20391;-75
2024/03/30 01:58:47;;;;;;;9.38;5.72;;;10.00;99.90;;;;;;5034302;28;20893;-75
2024/03/30 02:01:13;;;;;;;6.03;4.93;;;10.20;99.90;;;;;;5034557;28;20950;-75
2024/03/30 02:03:39;;;;;;;9.13;5.10;;;10.10;99.90;;;;;;5034672;28;20430;-76
2024/03/30 02:06:05;;;;;;;6.45;4.53;;;10.10;99.90;;;;;;5035394;28;20383;-77
2024/03/30 02:08:32;;;;;;;5.70;4.30;;;10.10;99.90;;;;;;5033156;28;20394;-76
2024/03/30 02:10:58;;;;;;;5.85;4.72;;;10.10;99.90;;;;;;5036547;28;20387;-76
2024/03/30 02:13:24;;;;;;;7.38;4.00;;;10.10;99.90;;;;;;5033783;28;20402;-76
2024/03/30 02:15:49;;;;;;;4.32;3.42;;;10.00;99.90;;;;;;5054662;22;20471;-73
2024/03/30 02:18:15;;;;;;;6.40;4.00;;;10.10;99.90;;;;;;5072258;28;20383;-72
2024/03/30 02:20:41;;;;;;;4.05;3.10;;;10.10;99.90;;;;;;5073500;28;20383;-73
2024/03/30 02:23:10;;;;;;;3.58;3.20;;;10.00;99.90;;;;;;5074146;28;20434;-70
2024/03/30 02:25:38;;;;;;;5.43;3.03;;;10.20;99.90;;;;;;5073455;28;20426;-71
2024/03/30 02:28:04;;;;;;;4.93;3.20;;;10.10;99.90;;;;;;5072942;28;20383;-70
2024/03/30 02:30:30;;;;;;;4.97;3.17;;;10.00;99.90;;;;;;5071190;28;20383;-70
2024/03/30 02:32:57;;;;;;;4.32;3.10;;;10.00;99.90;;;;;;5071122;28;20754;-71
2024/03/30 02:35:24;;;;;;;4.30;3.30;;;9.90;99.90;;;;;;5072706;28;20384;-74
2024/03/30 02:37:52;;;;;;;3.45;3.00;;;9.90;99.90;;;;;;5072827;28;20380;-70
2024/03/30 02:40:18;;;;;;;2.50;2.28;;;9.90;99.90;;;;;;5072755;28;20406;-71
2024/03/30 02:42:44;;;;;;;4.60;2.75;;;9.90;99.90;;;;;;5072977;28;20392;-70
2024/03/30 02:45:11;;;;;;;3.50;3.08;;;9.90;99.90;;;;;;5072475;28;20388;-71
2024/03/30 02:47:37;;;;;;;3.10;2.40;;;10.00;99.90;;;;;;5072702;28;20757;-70
2024/03/30 02:50:03;;;;;;;3.08;2.65;;;10.10;99.90;;;;;;5072527;28;20371;-70
2024/03/30 02:52:29;;;;;;;3.25;2.60;;;10.10;99.90;;;;;;5072378;28;20384;-71
2024/03/30 02:54:54;;;;;;;3.07;2.60;;;10.30;99.90;;;;;;5073030;28;20947;-71
2024/03/30 02:57:20;;;;;;;5.13;2.97;;;10.20;99.90;;;;;;5072418;28;20390;-71
2024/03/30 02:59:45;;;;;;;4.27;3.10;;;10.10;99.90;;;;;;5072377;28;20384;-69
2024/03/30 03:02:11;;;;;;;4.20;2.80;;;10.00;99.90;;;;;;5071944;28;20487;-69
2024/03/30 03:04:36;;;;;;;3.10;2.80;;;10.40;99.90;;;;;;5072170;28;20387;-70
2024/03/30 03:07:06;;;;;;;4.38;3.50;;;10.30;99.90;;;;;;5071884;28;20466;-69
2024/03/30 03:09:32;;;;;;;3.92;3.30;;;10.10;99.90;;;;;;5072227;28;20375;-69
2024/03/30 03:11:57;;;;;;;3.53;3.20;;;10.10;99.90;;;;;;5071723;28;20723;-69
2024/03/30 03:14:23;;;;;;;4.30;3.50;;;10.10;99.90;;;;;;5072023;28;20402;-70
2024/03/30 03:16:49;;;;;;;3.28;2.85;;;10.10;99.90;;;;;;5070825;28;20404;-70
2024/03/30 03:19:14;;;;;;;4.15;3.10;;;10.20;99.90;;;;;;5071925;28;20388;-71
2024/03/30 03:21:40;;;;;;;4.97;3.28;;;10.20;99.90;;;;;;5071805;28;20403;-71
2024/03/30 03:24:05;;;;;;;4.17;3.03;;;10.20;99.90;;;;;;5071730;28;20457;-69
2024/03/30 03:26:31;;;;;;;3.20;2.90;;;10.20;99.90;;;;;;5071820;28;20386;-69
2024/03/30 03:28:57;;;;;;;3.60;3.23;;;10.20;99.90;;;;;;5072236;28;20455;-70
2024/03/30 03:31:22;;;;;;;6.20;3.37;;;10.20;99.90;;;;;;5071914;28;20455;-72
2024/03/30 03:33:49;;;;;;;3.30;3.00;;;10.20;99.90;;;;;;5073983;28;20391;-70
2024/03/30 03:36:15;;;;;;;8.30;3.27;;;10.20;99.90;;;;;;5074657;28;20387;-71
2024/03/30 03:38:41;;;;;;;2.85;2.65;;;10.20;99.90;;;;;;5073788;28;20742;-70
2024/03/30 03:41:07;;;;;;;5.53;3.72;;;10.40;99.90;;;;;;5070707;28;20379;-71
2024/03/30 03:43:33;;;;;;;5.00;4.00;;;10.40;97.50;;;;;;5071659;28;20774;-71
2024/03/30 03:45:58;;;;;;;4.30;3.70;;;10.20;99.50;;;;;;5071394;28;20742;-70
2024/03/30 03:48:24;;;;;;;4.43;3.17;;;10.10;99.90;;;;;;5070155;28;20395;-70
2024/03/30 03:50:50;;;;;;;4.00;3.40;;;10.00;99.90;;;;;;5070922;28;20945;-70
2024/03/30 03:53:15;;;;;;;5.30;4.30;;;9.90;99.90;;;;;;5070993;28;20892;-71
2024/03/30 03:55:44;;;;;;;5.18;4.03;;;9.80;99.90;;;;;;5070921;28;20714;-72
2024/03/30 03:58:10;;;;;;;3.88;3.28;;;9.70;99.90;;;;;;5070802;28;20399;-70
2024/03/30 04:00:35;;;;;;;5.53;4.40;;;9.70;99.90;;;;;;5071107;28;20384;-71
2024/03/30 04:03:01;;;;;;;5.40;4.60;;;9.60;99.90;;;;;;5070701;28;20402;-72
2024/03/30 04:05:27;;;;;;;6.20;4.57;;;9.60;99.90;;;;;;5070926;28;20383;-70
2024/03/30 04:07:52;;;;;;;6.00;4.10;;;9.60;99.90;;;;;;5071028;28;20445;-69
2024/03/30 04:10:20;;;;;;;6.32;4.40;;;9.60;99.90;;;;;;5071171;28;20387;-70
2024/03/30 04:12:47;;;;;;;6.32;4.68;;;9.60;99.90;;;;;;5070737;28;20431;-70
2024/03/30 04:15:13;;;;;;;7.07;4.78;;;9.50;99.90;;;;;;5069184;28;20837;-70
2024/03/30 04:17:38;;;;;;;6.53;4.60;;;9.50;99.90;;;;;;5070743;28;20411;-70
2024/03/30 04:20:05;;;;;;;5.57;4.30;;;9.60;99.90;;;;;;5070928;28;20869;-69
2024/03/30 04:22:31;;;;;;;6.70;4.50;;;9.60;99.90;;;;;;5070378;28;20439;-71
2024/03/30 04:24:56;;;;;;;7.15;4.65;;;9.60;99.90;;;;;;5070890;28;20423;-70
2024/03/30 04:27:22;;;;;;;4.60;3.90;;;9.60;99.90;;;;;;5070564;28;20391;-69
2024/03/30 04:29:47;;;;;;;5.75;4.32;;;9.70;99.90;;;;;;5070664;28;20391;-71
2024/03/30 04:32:13;;;;;;;6.65;4.82;;;9.60;99.90;;;;;;5070383;28;20387;-70
2024/03/30 04:34:40;;;;;;;6.10;4.70;;;9.60;99.90;;;;;;5071002;28;20758;-69
2024/03/30 04:37:05;;;;;;;8.57;4.47;;;9.60;99.90;;;;;;5070734;28;20445;-72
2024/03/30 04:39:31;;;;;;;5.82;4.50;;;9.70;99.90;;;;;;5070816;28;20862;-71
2024/03/30 04:41:59;;;;;;;8.80;5.10;;;9.90;99.90;;;;;;5070569;28;20453;-72
2024/03/30 04:44:25;;;;;;;6.93;4.85;;;9.70;99.90;;;;;;5071247;28;20402;-70
2024/03/30 04:46:50;;;;;;;7.07;5.00;;;9.70;99.90;;;;;;5071360;28;20436;-71
2024/03/30 04:49:16;;;;;;;5.83;4.93;;;9.60;99.90;;;;;;5071207;28;20398;-71
2024/03/30 04:51:41;;;;;;;6.53;4.93;;;9.50;99.90;;;;;;5071169;28;20467;-70
2024/03/30 04:54:07;;;;;;;6.93;4.90;;;9.50;99.90;;;;;;5073999;28;20423;-71
2024/03/30 04:56:33;;;;;;;6.80;4.70;;;9.60;99.90;;;;;;5077901;28;20391;-71
2024/03/30 04:58:59;;;;;;;6.50;4.80;;;9.60;99.90;;;;;;5077856;28;20375;-69
2024/03/30 05:01:24;;;;;;;7.30;5.50;;;9.70;99.90;;;;;;5074396;28;20407;-70
2024/03/30 05:03:50;;;;;;;7.60;5.30;;;9.70;99.90;;;;;;5074580;28;20425;-70
2024/03/30 05:06:16;;;;;;;6.40;5.40;;;9.60;99.90;;;;;;5074476;28;20376;-71
2024/03/30 05:08:41;;;;;;;9.77;4.80;;;9.70;99.90;;;;;;5074669;28;20375;-70
2024/03/30 05:11:07;;;;;;;5.97;5.00;;;9.60;99.90;;;;;;5074359;28;20383;-71
2024/03/30 05:13:32;;;;;;;9.67;6.40;;;9.50;99.90;;;;;;5074537;28;20476;-71
2024/03/30 05:15:58;;;;;;;9.90;5.15;;;9.50;99.90;;;;;;5074423;28;20880;-72
2024/03/30 05:18:26;;;;;;;5.80;5.20;;;9.70;99.90;;;;;;5074453;28;20384;-70
2024/03/30 05:20:58;;;;;;;8.37;5.20;;;9.70;99.90;;;;;;5072782;28;20990;-71
2024/03/30 05:23:34;;;;;;;6.97;5.38;;;9.70;99.90;;;;;;5074025;28;20898;-71
2024/03/30 05:26:02;;;;;;;8.80;5.80;;;9.70;99.90;;;;;;5074178;28;20415;-71
2024/03/30 05:28:35;;;;;;;6.75;5.60;;;9.60;99.90;;;;;;5074402;28;20391;-71
2024/03/30 05:31:10;;;;;;;7.07;5.60;;;9.50;99.90;;;;;;5074027;28;20458;-70
2024/03/30 05:33:35;;;;;;;10.20;5.78;;;9.50;99.90;;;;;;5074232;28;20387;-70
2024/03/30 05:36:01;;;;;;;6.67;5.80;;;9.50;99.90;;;;;;5073809;28;20474;-71
2024/03/30 05:38:26;;;;;;;6.97;5.20;;;9.50;99.90;;;;;;5072893;28;20397;-70
2024/03/30 05:40:52;;;;;;;9.47;6.40;;;9.60;99.90;;;;;;5073601;28;20861;-69
2024/03/30 05:43:18;;;;;;;7.30;6.03;;;9.50;99.90;;;;;;5074162;28;20408;-70
2024/03/30 05:45:48;;;;;;;7.22;5.90;;;9.50;99.90;;;;;;5074796;28;20390;-72
2024/03/30 05:48:14;;;;;;;6.45;5.60;;;9.70;99.90;;;;;;5075853;28;20445;-71
2024/03/30 05:50:40;;;;;;;7.55;6.20;;;9.70;99.90;;;;;;5075687;28;20380;-70
2024/03/30 05:53:05;;;;;;;8.25;6.25;;;9.80;99.90;;;;;;5073827;28;20420;-70
2024/03/30 05:55:31;;;;;;;8.48;6.20;;;9.90;99.90;;;;;;5075935;28;20390;-72
2024/03/30 05:58:02;;;;;;;8.30;6.00;;;9.90;99.90;;;;;;5077364;28;20395;-71
2024/03/30 06:00:28;;;;;;;12.55;5.95;;;10.00;99.90;;;;;;5078874;28;20422;-70
2024/03/30 06:02:54;;;;;;;9.32;6.70;;;10.30;99.90;;;;;;5075760;28;20427;-71
2024/03/30 06:05:20;;;;;;;12.30;7.00;;;10.20;99.90;;;;;;5074442;28;20479;-71
2024/03/30 06:07:45;;;;;;;9.05;6.32;;;10.30;99.90;;;;;;5074219;28;20379;-71
2024/03/30 06:10:11;;;;;;;10.43;5.97;;;10.30;99.90;;;;;;5073541;28;20392;-71
2024/03/30 06:12:37;;;;;;;10.50;6.50;;;10.50;99.90;;;;;;5073171;28;20388;-71
2024/03/30 06:15:05;;;;;;;13.00;6.70;;;10.70;99.90;;;;;;5072177;28;20384;-72
2024/03/30 06:17:34;;;;;;;8.52;6.35;;;10.70;99.90;;;;;;5074059;28;20461;-70
2024/03/30 06:20:00;;;;;;;11.88;6.30;;;10.80;98.80;;;;;;5073388;28;20746;-71
2024/03/30 06:22:26;;;;;;;8.35;5.97;;;10.90;98.80;;;;;;5072840;28;20468;-71
2024/03/30 06:24:52;;;;;;;9.23;6.00;;;11.10;94.40;;;;;;5073128;28;20466;-71
2024/03/30 06:27:18;;;;;;;11.68;6.57;;;11.10;93.60;;;;;;5073032;28;20437;-70
2024/03/30 06:29:43;;;;;;;8.68;6.20;;;11.20;92.60;;;;;;5073017;28;20870;-71
2024/03/30 06:32:09;;;;;;;10.17;5.83;;;11.20;93.80;;;;;;5071433;28;20414;-70
2024/03/30 06:34:34;;;;;;;8.57;6.00;;;11.40;90.80;;;;;;5073105;28;20383;-70
2024/03/30 06:37:00;;;;;;;8.50;5.93;;;11.40;88.00;;;;;;5072888;28;20387;-70
2024/03/30 06:43:40;;;;;;;11.40;6.63;;;11.60;87.50;;;;;;5073162;28;20869;-71
2024/03/30 06:44:55;;;;;;;8.57;5.90;;;11.70;87.00;;;;;;5073624;28;20398;-71
2024/03/30 06:47:21;;;;;;;9.50;6.20;;;11.70;86.80;;;;;;5077382;28;20380;-70
2024/03/30 06:49:46;;;;;;;10.88;6.25;;;11.80;85.40;;;;;;5076706;28;20407;-70
2024/03/30 06:52:12;;;;;;;10.07;6.28;;;11.90;81.90;;;;;;5073158;28;20469;-71
2024/03/30 06:54:37;;;;;;;10.70;6.10;;;11.90;81.30;;;;;;5072392;28;20442;-71
2024/03/30 06:57:03;;;;;;;9.87;6.00;;;11.90;82.20;;;;;;5072345;28;20749;-71
2024/03/30 06:59:29;;;;;;;8.57;5.57;;;11.90;82.40;;;;;;5072083;28;20878;-70
2024/03/30 07:01:54;;;;;;;7.30;5.50;;;12.00;81.20;;;;;;5071750;28;20396;-71
2024/03/30 07:04:20;;;;;;;11.00;5.97;;;12.10;80.80;;;;;;5072127;28;20891;-70
2024/03/30 07:06:45;;;;;;;12.60;5.75;;;12.20;76.90;;;;;;5072027;28;20455;-71
2024/03/30 07:09:11;;;;;;;9.23;5.10;;;12.30;75.70;;;;;;5072450;28;20411;-71
2024/03/30 07:11:38;;;;;;;8.40;5.07;;;12.20;74.80;;;;;;5070558;28;20790;-71
2024/03/30 07:14:04;;;;;;;8.40;5.10;;;12.20;73.90;;;;;;5071990;28;20896;-71
2024/03/30 07:16:30;;;;;;;5.38;4.63;;;12.30;73.30;;;;;;5070794;28;20388;-70
2024/03/30 07:18:56;;;;;;;9.63;4.70;;;12.30;73.20;;;;;;5071782;28;20785;-70
2024/03/30 07:21:21;;;;;;;10.90;4.93;;;12.30;73.40;;;;;;5071220;28;20471;-71
2024/03/30 07:23:47;;;;;;;8.68;4.60;;;12.30;73.10;;;;;;5071859;28;20892;-71
2024/03/30 07:26:12;;;;;;;6.90;4.30;;;12.20;73.20;;;;;;5071325;28;20368;-71
2024/03/30 07:28:38;;;;;;;8.43;3.80;;;12.30;73.70;;;;;;5070394;28;20650;-71
2024/03/30 07:31:05;;;;;;;8.97;4.47;;;12.20;74.80;;;;;;5071210;28;20433;-70
2024/03/30 07:33:32;;;;;;;7.82;4.35;;;12.30;74.50;;;;;;5071511;28;20411;-70
2024/03/30 07:35:57;;;;;;;9.38;3.85;;;12.40;72.80;;;;;;5069887;28;20388;-69
2024/03/30 07:38:31;;;;;;;9.82;4.80;;;12.40;72.30;;;;;;5071127;28;20407;-70
2024/03/30 07:40:57;;;;;;;7.35;3.92;;;12.30;74.40;;;;;;5071124;28;20755;-71
2024/03/30 07:43:23;;;;;;;8.80;4.22;;;12.30;75.60;;;;;;5071384;28;20403;-71
2024/03/30 07:45:49;;;;;;;8.27;4.05;;;12.30;75.30;;;;;;5070919;28;20846;-72
2024/03/30 07:48:14;;;;;;;13.82;5.28;;;12.40;75.30;;;;;;5071593;28;20415;-72
2024/03/30 07:50:40;;;;;;;6.60;3.80;;;12.50;73.00;;;;;;5071253;28;20375;-72
2024/03/30 07:53:06;;;;;;;6.18;3.63;;;12.70;71.40;;;;;;5072003;28;20387;-70
2024/03/30 07:55:31;;;;;;;8.73;3.53;;;12.70;70.00;;;;;;5069893;28;20392;-70
2024/03/30 07:57:57;;;;;;;8.55;3.50;;;12.90;68.80;;;;;;5072410;28;20797;-73
2024/03/30 08:00:23;;;;;;;7.93;4.40;;;13.00;65.40;;;;;;5073057;28;20478;-70
2024/03/30 08:02:49;;;;;;;5.88;3.72;;;13.30;65.00;;;;;;5071600;28;20534;-69
2024/03/30 08:05:14;;;;;;;6.60;3.38;;;13.30;63.90;;;;;;5070948;28;20380;-70
2024/03/30 08:07:42;;;;;;;10.02;3.10;;;13.30;63.60;;;;;;5070318;28;20451;-71
2024/03/30 08:10:07;;;;;;;13.77;3.97;;;13.30;64.10;;;;;;5070865;28;20423;-69
2024/03/30 08:12:33;;;;;;;6.10;3.58;;;13.40;63.00;;;;;;5070562;28;20380;-71
2024/03/30 08:14:58;;;;;;;12.40;3.95;;;13.40;62.70;;;;;;5070839;28;20842;-71
2024/03/30 08:17:24;;;;;;;8.17;3.27;;;13.50;62.00;;;;;;5076930;22;20524;-71
2024/03/30 08:19:49;;;;;;;8.17;3.93;;;13.70;60.60;;;;;;5050819;28;20385;-72
2024/03/30 08:22:16;;;;;;;10.98;3.92;;;13.90;59.60;;;;;;5050530;28;20405;-72
2024/03/30 08:24:41;;;;;;;8.55;3.53;;;14.00;58.50;;;;;;5050605;28;20769;-72
2024/03/30 08:27:07;;;;;;;13.83;3.73;;;14.20;55.90;;;;;;5050618;28;20413;-73
2024/03/30 08:29:33;;;;;;;7.60;3.10;;;14.40;55.40;;;;;;5032289;28;20389;-72
2024/03/30 08:31:58;;;;;;;6.55;3.80;;;14.40;53.30;;;;;;5050258;28;20949;-72
2024/03/30 08:34:24;;;;;;;9.57;3.43;;;14.50;52.50;;;;;;5050401;28;20806;-72
2024/03/30 08:36:49;;;;;;;7.60;2.40;;;14.70;51.10;;;;;;5050478;28;20768;-72
2024/03/30 08:39:15;;;;;;;5.50;2.30;;;14.90;49.30;;;;;;5050464;28;20377;-72
2024/03/30 08:41:40;;;;;;;11.93;3.20;;;15.20;47.40;;;;;;5050350;28;20686;-72
2024/03/30 08:44:07;;;;;;;10.65;3.15;;;15.90;47.80;;;;;;5050391;28;20385;-73
2024/03/30 08:46:32;;;;;;;6.57;3.00;;;15.60;45.30;;;;;;5032334;28;20728;-74
2024/03/30 08:49:05;;;;;;;10.35;2.63;;;15.90;43.00;;;;;;5050429;28;20394;-73
2024/03/30 08:51:31;;;;;;;10.48;3.17;;;16.10;41.80;;;;;;5032091;28;20390;-72
2024/03/30 08:54:05;;;;;;;7.95;2.65;;;16.30;41.10;;;;;;5050472;28;20382;-73
2024/03/30 08:56:31;;;;;;;15.02;3.30;;;16.40;39.00;;;;;;5050545;28;20539;-72
2024/03/30 08:58:57;;;;;;;11.35;3.42;;;16.50;39.00;;;;;;5050366;28;20381;-72
2024/03/30 09:01:23;;;;;;;12.52;3.40;;;16.50;38.90;;;;;;5050232;28;20392;-72
2024/03/30 09:03:49;;;;;;;20.80;3.22;;;16.70;38.30;;;;;;5053054;28;20812;-73
2024/03/30 09:06:15;;;;;;;9.13;3.03;;;16.70;36.80;;;;;;5052608;28;20382;-73
2024/03/30 09:08:41;;;;;;;12.70;3.53;;;16.80;37.00;;;;;;5054665;28;20435;-73
2024/03/30 09:11:07;;;;;;;15.25;3.40;;;17.00;36.00;;;;;;5036961;28;20392;-73
2024/03/30 09:13:33;;;;;;;15.00;3.60;;;17.00;34.50;;;;;;5055523;28;20419;-73
2024/03/30 09:15:59;;;;;;;13.20;3.55;;;17.10;34.60;;;;;;5054229;28;20397;-74
2024/03/30 09:18:25;;;;;;;12.70;3.50;;;17.10;34.70;;;;;;5050567;28;20416;-73
2024/03/30 09:20:50;;;;;;;10.77;3.20;;;17.20;33.70;;;;;;5049855;28;20427;-72
2024/03/30 09:23:16;;;;;;;24.30;3.83;;;17.10;33.70;;;;;;5050117;28;20498;-72
2024/03/30 09:25:42;;;;;;;16.58;4.50;;;17.20;32.70;;;;;;5049803;28;20559;-72
2024/03/30 09:28:07;;;;;;;17.00;3.50;;;17.20;33.00;;;;;;5049963;28;20382;-72
2024/03/30 09:30:33;;;;;;;23.20;3.90;;;17.30;32.30;;;;;;5049963;28;20373;-72
2024/03/30 09:32:59;;;;;;;16.23;3.30;;;17.40;32.40;;;;;;5049633;28;20397;-72
2024/03/30 09:35:25;;;;;;;17.45;3.60;;;17.50;31.60;;;;;;5050297;28;20385;-72
2024/03/30 09:37:50;;;;;;;19.23;3.90;;;17.50;30.50;;;;;;5050429;28;20389;-72
2024/03/30 09:40:16;;;;;;;20.63;3.87;;;17.50;30.90;;;;;;5053438;28;20456;-72
2024/03/30 09:42:42;;;;;;;13.68;3.25;;;17.50;30.50;;;;;;5055564;28;20748;-73
2024/03/30 09:45:12;;;;;;;18.70;3.88;;;17.40;30.60;;;;;;5054666;28;20396;-72
2024/03/30 09:47:42;;;;;;;23.30;4.97;;;17.30;31.50;;;;;;5054988;28;20463;-72
2024/03/30 09:50:09;;;;;;;18.25;4.50;;;17.20;31.60;;;;;;5053951;28;20793;-72
2024/03/30 09:52:39;;;;;;;23.23;4.35;;;17.30;31.50;;;;;;5054597;28;20392;-72
2024/03/30 09:55:10;;;;;;;30.70;4.93;;;17.20;31.30;;;;;;5054576;28;20390;-72
2024/03/30 09:57:40;;;;;;;22.77;3.93;;;17.20;31.90;;;;;;5054691;28;20409;-72
2024/03/30 10:00:09;;;;;;;22.38;4.78;;;17.30;31.00;;;;;;5053992;28;20540;-73
2024/03/30 10:02:35;;;;;;;34.33;4.80;;;17.40;30.40;;;;;;5053086;28;20405;-72
2024/03/30 10:05:01;;;;;;;31.07;5.70;;;17.60;29.40;;;;;;5053483;28;20377;-73
2024/03/30 10:07:36;;;;;;;20.70;5.33;;;17.80;28.50;;;;;;5053323;28;20476;-72
2024/03/30 10:10:11;;;;;;;31.58;4.60;;;18.20;27.90;;;;;;5053441;28;20378;-72
2024/03/30 10:12:58;;;;;;;30.45;5.10;;;18.50;26.20;;;;;;5034686;28;20404;-72
2024/03/30 10:15:45;;;;;;;26.73;4.60;;;18.60;25.40;;;;;;5053077;28;20412;-73
2024/03/30 10:18:11;;;;;;;35.38;5.22;;;18.80;23.70;;;;;;5053523;28;20408;-72
2024/03/30 10:20:37;;;;;;;33.67;5.10;;;18.90;22.70;;;;;;5054435;28;20393;-73
2024/03/30 10:23:03;;;;;;;33.58;4.70;;;18.90;22.70;;;;;;5052659;28;20413;-72
2024/03/30 10:25:30;;;;;;;41.65;5.60;;;19.00;22.40;;;;;;5052741;28;20378;-72
2024/03/30 10:27:55;;;;;;;31.45;5.22;;;19.10;21.50;;;;;;5052834;28;20888;-72
2024/03/30 10:30:21;;;;;;;44.97;5.85;;;19.10;21.30;;;;;;5035414;28;20469;-73
2024/03/30 10:32:46;;;;;;;40.10;6.38;;;19.30;20.90;;;;;;5035216;28;20464;-72
2024/03/30 10:35:19;;;;;;;41.13;6.50;;;19.30;20.00;;;;;;5053324;28;20472;-71
2024/03/30 10:37:46;;;;;;;36.80;5.80;;;19.40;20.20;;;;;;5053019;28;20407;-72
2024/03/30 10:40:13;;;;;;;49.50;6.10;;;19.20;20.00;;;;;;5052965;28;20377;-72
2024/03/30 10:42:39;;;;;;;37.93;6.70;;;19.10;19.90;;;;;;5052410;28;20416;-72
2024/03/30 10:45:06;;;;;;;39.58;5.82;;;19.00;19.60;;;;;;5052786;28;20476;-72
2024/03/30 10:47:34;;;;;;;43.40;5.95;;;19.00;19.70;;;;;;5035658;28;20883;-72
2024/03/30 10:50:00;;;;;;;43.95;6.60;;;19.00;20.00;;;;;;5064088;28;20417;-72
2024/03/30 10:52:26;;;;;;;44.70;6.40;;;18.90;20.00;;;;;;5064893;28;20389;-73
2024/03/30 10:54:55;;;;;;;38.20;5.90;;;18.80;19.80;;;;;;5066219;28;20388;-72
2024/03/30 10:57:25;;;;;;;42.03;5.90;;;18.70;20.20;;;;;;5063378;28;20499;-72
2024/03/30 10:59:52;;;;;;;45.10;6.70;;;18.80;20.10;;;;;;5065362;28;20384;-71
2024/03/30 11:02:21;;;;;;;44.33;7.10;;;19.10;19.80;;;;;;5063129;28;20412;-71
2024/03/30 11:04:49;;;;;;;41.90;7.20;;;18.80;19.70;;;;;;5063193;28;20397;-72
2024/03/30 11:07:16;;;;;;;41.78;6.35;;;18.60;19.90;;;;;;5040609;28;20420;-72
2024/03/30 11:09:43;;;;;;;38.53;6.07;;;18.50;19.70;;;;;;5060965;28;20420;-72
2024/03/30 11:12:10;;;;;;;44.60;7.07;;;18.50;19.80;;;;;;5061820;28;20397;-72
2024/03/30 11:14:36;;;;;;;45.60;7.30;;;18.50;19.70;;;;;;5062573;28;20393;-71
2024/03/30 11:17:26;;;;;;;52.90;6.80;;;18.60;19.70;;;;;;5061404;28;20484;-72
2024/03/30 11:20:14;;;;;;;38.58;5.80;;;18.50;19.70;;;;;;5062003;28;20393;-72
2024/03/30 11:22:52;;;;;;;48.15;7.22;;;18.50;19.80;;;;;;5064238;28;20393;-72
2024/03/30 11:25:20;;;;;;;41.38;6.72;;;18.50;19.90;;;;;;5062239;28;20404;-72
2024/03/30 11:28:06;;;;;;;52.83;8.23;;;18.70;20.00;;;;;;5060708;28;20382;-72
2024/03/30 11:31:07;;;;;;;50.83;7.78;;;18.60;19.60;;;;;;5054147;28;20382;-73
2024/03/30 11:33:44;;;;;;;46.55;7.20;;;18.60;19.20;;;;;;4972406;28;20783;-72
2024/03/30 11:36:17;;;;;;;45.63;7.40;;;18.70;19.60;;;;;;5044122;28;20460;-73
2024/03/30 11:38:47;;;;;;;57.67;7.00;;;18.70;19.90;;;;;;5055917;28;20381;-72
2024/03/30 11:41:15;;;;;;;47.65;6.75;;;18.80;19.40;;;;;;5052759;28;20392;-72
2024/03/30 11:44:00;;;;;;;57.57;7.30;;;18.80;19.60;;;;;;5051597;28;20508;-72
2024/03/30 11:46:27;;;;;;;40.22;7.50;;;18.70;19.80;;;;;;5051841;28;20390;-72
2024/03/30 11:48:53;;;;;;;44.78;7.55;;;18.60;19.90;;;;;;5034309;28;20392;-72
2024/03/30 11:51:20;;;;;;;42.35;6.97;;;18.60;20.00;;;;;;5051934;28;20381;-72
2024/03/30 11:53:46;;;;;;;54.88;8.10;;;18.60;19.60;;;;;;5051580;28;20442;-72
2024/03/30 11:56:12;;;;;;;55.30;8.65;;;18.70;19.30;;;;;;5051549;28;20393;-71
2024/03/30 11:58:41;;;;;;;51.67;7.67;;;18.80;19.30;;;;;;5051550;28;20465;-72
2024/03/30 12:01:09;;;;;;;64.85;8.52;;;18.70;18.80;;;;;;5051007;28;20399;-72
2024/03/30 12:03:36;;;;;;;60.88;8.82;;;18.60;18.80;;;;;;5051462;28;20408;-73
2024/03/30 12:06:03;;;;;;;60.03;8.85;;;18.60;18.60;;;;;;5053249;28;20381;-71
2024/03/30 12:08:29;;;;;;;56.53;8.73;;;18.50;18.70;;;;;;5052674;28;20427;-72
2024/03/30 12:11:04;;;;;;;54.37;7.90;;;18.40;18.90;;;;;;5054746;28;20787;-72
2024/03/30 12:13:39;;;;;;;61.10;8.65;;;18.40;18.70;;;;;;5044899;28;20458;-72
2024/03/30 12:16:06;;;;;;;54.40;8.07;;;18.20;19.00;;;;;;5033063;28;20438;-71
2024/03/30 12:18:32;;;;;;;42.97;7.47;;;18.10;19.10;;;;;;5033718;28;20848;-71
2024/03/30 12:20:58;;;;;;;60.08;8.30;;;18.00;19.10;;;;;;5048199;28;20870;-70
2024/03/30 12:23:24;;;;;;;50.03;7.53;;;18.20;19.40;;;;;;5042988;28;20409;-72
2024/03/30 12:25:51;;;;;;;55.60;8.45;;;18.20;19.10;;;;;;5048885;28;20777;-71
2024/03/30 12:28:17;;;;;;;57.03;7.65;;;18.30;18.60;;;;;;5053972;28;20387;-70
2024/03/30 12:30:44;;;;;;;61.33;7.05;;;18.30;18.20;;;;;;5058781;28;20390;-70
2024/03/30 12:33:10;;;;;;;52.67;8.23;;;18.30;18.60;;;;;;5052858;28;20385;-70
2024/03/30 12:35:36;;;;;;;46.50;6.80;;;18.30;18.40;;;;;;5046166;28;20495;-70
2024/03/30 12:38:03;;;;;;;45.03;7.00;;;18.30;18.30;;;;;;5050398;28;20390;-71
2024/03/30 12:40:31;;;;;;;48.55;7.45;;;18.30;18.30;;;;;;5050252;28;20756;-71
2024/03/30 12:42:58;;;;;;;40.67;7.10;;;18.40;18.40;;;;;;5050105;28;20415;-70
2024/03/30 12:45:23;;;;;;;47.97;7.03;;;18.50;17.80;;;;;;5050640;28;20477;-70
2024/03/30 12:47:49;;;;;;;55.88;6.45;;;18.50;17.70;;;;;;5032173;28;20472;-70